Terminal Aerodrome Forecast
Issued by NWS

Current Version | Previous Version | Text Only | Print | Product List | Glossary Off
Versions: 1 2 3 4 5 6 7 8 9 10 11 12 13 14 15 16 17 18 19 20

791
FTUS41 KPBZ 130520
TAFMGW
TAF
KMGW 130520Z 1306/1406 29007KT P6SM BKN035
     FM131500 24012G18KT P6SM SCT035
     FM132000 20012KT P6SM OVC080
     FM140300 23012G22KT P6SM OVC025=

USA.gov is the U.S. government's official web portal to all federal, state and local government web resources and services.